createdAt,value
2023-01-13T00:04:23.164Z,7.06
2023-01-13T00:09:26.245Z,7.06
2023-01-13T00:14:30.485Z,7.04
2023-01-13T00:19:33.594Z,7.04
2023-01-13T00:24:36.701Z,7.04
2023-01-13T00:29:39.807Z,7.05
2023-01-13T00:34:43.229Z,7.04
2023-01-13T00:39:46.747Z,7.02
2023-01-13T00:44:49.854Z,6.97
2023-01-13T00:49:52.963Z,6.92
2023-01-13T00:54:56.183Z,6.89
2023-01-13T00:59:59.491Z,6.87
2023-01-13T01:05:02.529Z,6.87
2023-01-13T01:10:06.219Z,6.87
2023-01-13T01:15:10.563Z,6.88
2023-01-13T01:20:13.659Z,6.89
2023-01-13T01:25:16.980Z,6.90
2023-01-13T01:30:20.478Z,6.90
2023-01-13T01:35:24.983Z,6.92
2023-01-13T01:40:28.148Z,6.92
2023-01-13T01:45:31.551Z,6.93
2023-01-13T01:50:35.243Z,6.93
2023-01-13T01:55:38.703Z,6.93
2023-01-13T02:00:41.939Z,6.92
2023-01-13T02:05:45.125Z,6.90
2023-01-13T02:10:53.893Z,6.84
2023-01-13T02:16:15.654Z,6.77
2023-01-13T02:21:35.820Z,6.70
2023-01-13T02:26:41.699Z,6.65
2023-01-13T02:31:48.851Z,6.64
2023-01-13T02:37:00.297Z,6.63
2023-01-13T02:42:37.106Z,6.62
2023-01-13T02:47:43.285Z,6.61
2023-01-13T02:52:55.100Z,6.60
2023-01-13T02:58:01.090Z,6.58
2023-01-13T03:03:04.281Z,6.56
2023-01-13T03:08:19.582Z,6.55
2023-01-13T03:13:58.133Z,6.55
2023-01-13T03:19:30.402Z,6.55
2023-01-13T03:24:39.658Z,6.56
2023-01-13T03:29:49.013Z,6.57
2023-01-13T03:34:57.187Z,6.59
2023-01-13T03:40:13.562Z,6.61
2023-01-13T03:45:19.634Z,6.62
2023-01-13T03:50:28.583Z,6.64
2023-01-13T03:55:36.566Z,6.65
2023-01-13T04:00:46.472Z,6.67
2023-01-13T04:05:56.832Z,6.68
2023-01-13T04:11:25.771Z,6.70
2023-01-13T04:16:29.109Z,6.71
2023-01-13T04:21:33.424Z,6.72
2023-01-13T04:26:36.420Z,6.74
2023-01-13T04:31:39.432Z,6.76
2023-01-13T04:36:42.437Z,6.77
2023-01-13T04:42:02.616Z,6.80
2023-01-13T04:47:05.967Z,6.81
2023-01-13T04:52:09.073Z,6.82
2023-01-13T04:57:12.077Z,6.83
2023-01-13T05:02:20.052Z,6.84
2023-01-13T05:07:23.409Z,6.85
2023-01-13T05:12:45.676Z,6.87
2023-01-13T05:17:49.259Z,6.88
2023-01-13T05:23:11.246Z,6.89
2023-01-13T05:28:14.775Z,6.90
2023-01-13T05:33:20.749Z,6.89
2023-01-13T05:38:23.649Z,6.90
2023-01-13T05:43:28.136Z,6.90
2023-01-13T05:48:34.060Z,6.90
2023-01-13T05:53:37.477Z,6.90
2023-01-13T05:58:40.583Z,6.91
2023-01-13T06:03:43.482Z,6.90
2023-01-13T06:08:46.605Z,6.91
2023-01-13T06:13:49.523Z,6.90
2023-01-13T06:18:53.071Z,6.90
2023-01-13T06:23:56.614Z,6.91
2023-01-13T06:28:59.535Z,6.91
2023-01-13T06:34:08.263Z,6.91
2023-01-13T06:39:14.227Z,6.92
2023-01-13T06:44:18.489Z,6.93
2023-01-13T06:49:21.821Z,6.95
2023-01-13T06:54:27.591Z,6.96
2023-01-13T06:59:30.898Z,6.97
2023-01-13T07:04:33.995Z,6.98
2023-01-13T07:09:37.004Z,6.99
2023-01-13T07:14:58.961Z,7.00
2023-01-13T07:20:02.063Z,7.02
2023-01-13T07:25:05.755Z,7.03
2023-01-13T07:30:09.592Z,7.05
2023-01-13T07:35:12.620Z,7.05
2023-01-13T07:40:16.138Z,7.07
2023-01-13T07:45:19.268Z,7.09
2023-01-13T07:50:23.866Z,7.11
2023-01-13T07:55:27.115Z,7.13
2023-01-13T08:00:30.415Z,7.16
2023-01-13T08:05:35.899Z,7.18
2023-01-13T08:10:38.901Z,7.21
2023-01-13T08:15:41.799Z,7.24
2023-01-13T08:20:44.801Z,7.28
2023-01-13T08:25:48.301Z,7.31
2023-01-13T08:30:53.220Z,7.35
2023-01-13T08:35:56.590Z,7.38
2023-01-13T08:40:59.792Z,7.41
2023-01-13T08:46:05.052Z,7.45
2023-01-13T08:51:10.497Z,7.49
2023-01-13T08:56:14.754Z,7.52
2023-01-13T09:01:22.902Z,7.54
2023-01-13T09:06:26.395Z,7.54
2023-01-13T09:11:56.542Z,7.55
2023-01-13T09:17:00.364Z,7.56
2023-01-13T09:22:04.296Z,7.57
2023-01-13T09:27:07.611Z,7.59
2023-01-13T09:32:14.566Z,7.61
2023-01-13T09:37:17.618Z,7.64
2023-01-13T09:42:47.252Z,7.68
2023-01-13T09:48:17.840Z,7.72
2023-01-13T09:53:34.215Z,7.78
2023-01-13T09:58:37.427Z,7.85
2023-01-13T10:03:40.379Z,7.91
2023-01-13T10:08:45.815Z,7.94
2023-01-13T10:13:58.233Z,7.98
2023-01-13T10:19:12.720Z,8.01
2023-01-13T10:24:25.324Z,8.04
2023-01-13T10:29:30.594Z,8.08
2023-01-13T10:34:51.018Z,8.12
2023-01-13T10:40:00.879Z,8.15
2023-01-13T10:45:04.476Z,8.16
2023-01-13T10:50:13.439Z,8.16
2023-01-13T10:55:34.586Z,8.19
2023-01-13T11:00:37.889Z,8.24
2023-01-13T11:05:47.959Z,8.31
2023-01-13T11:10:54.655Z,8.35
2023-01-13T11:16:00.471Z,8.33
2023-01-13T11:21:12.821Z,8.32
2023-01-13T11:26:27.768Z,8.34
2023-01-13T11:31:33.645Z,8.35
2023-01-13T11:36:46.757Z,8.30
2023-01-13T11:42:21.601Z,8.28
2023-01-13T11:47:26.876Z,8.31
2023-01-13T11:52:39.149Z,8.29
2023-01-13T11:57:56.226Z,8.26
2023-01-13T12:03:23.167Z,8.22
2023-01-13T12:08:45.974Z,8.17
2023-01-13T12:14:04.961Z,8.14
2023-01-13T12:19:30.481Z,8.13
2023-01-13T12:25:00.373Z,8.14
2023-01-13T12:30:29.538Z,8.13
2023-01-13T12:35:41.968Z,8.11
2023-01-13T12:41:21.324Z,8.09
2023-01-13T12:46:24.844Z,8.05
2023-01-13T12:51:37.784Z,8.04
2023-01-13T12:56:42.349Z,8.01
2023-01-13T13:01:51.125Z,8.00
2023-01-13T13:07:08.195Z,8.02
2023-01-13T13:13:01.090Z,8.02
2023-01-13T13:18:22.221Z,8.02
2023-01-13T13:23:40.476Z,8.02
2023-01-13T13:29:13.282Z,8.05
2023-01-13T13:34:38.094Z,8.05
2023-01-13T13:40:02.643Z,8.06
2023-01-13T13:45:36.042Z,8.07
2023-01-13T13:50:47.920Z,8.09
2023-01-13T13:56:02.213Z,8.08
2023-01-13T14:01:06.321Z,8.06
2023-01-13T14:06:23.791Z,8.07
2023-01-13T14:11:33.384Z,8.03
2023-01-13T14:16:38.463Z,7.99
2023-01-13T14:21:41.562Z,7.96
2023-01-13T14:26:44.570Z,7.93
2023-01-13T14:31:53.417Z,7.91
2023-01-13T14:36:56.587Z,7.89
2023-01-13T14:41:59.713Z,7.86
2023-01-13T14:47:16.345Z,7.82
2023-01-13T14:52:21.974Z,7.78
2023-01-13T14:57:28.184Z,7.76
2023-01-13T15:02:31.364Z,7.73
2023-01-13T15:07:34.807Z,7.72
2023-01-13T15:12:40.881Z,7.71
2023-01-13T15:17:46.153Z,7.69
2023-01-13T15:22:50.027Z,7.69
2023-01-13T15:27:53.694Z,7.69
2023-01-13T15:32:58.339Z,7.70
2023-01-13T15:38:01.342Z,7.72
2023-01-13T15:43:23.291Z,7.72
2023-01-13T15:48:29.678Z,7.73
2023-01-13T15:53:33.809Z,7.74
2023-01-13T15:58:36.821Z,7.73
2023-01-13T16:03:40.031Z,7.72
2023-01-13T16:08:43.149Z,7.69
2023-01-13T16:13:46.151Z,7.66
2023-01-13T16:18:50.326Z,7.62
2023-01-13T16:23:53.312Z,7.58
2023-01-13T16:28:58.012Z,7.54
2023-01-13T16:34:03.131Z,7.50
2023-01-13T16:39:20.663Z,7.49
2023-01-13T16:44:23.703Z,7.47
2023-01-13T16:49:26.713Z,7.46
2023-01-13T16:54:29.827Z,7.45
2023-01-13T16:59:33.038Z,7.43
2023-01-13T17:04:36.154Z,7.41
2023-01-13T17:09:39.210Z,7.38
2023-01-13T17:14:43.714Z,7.35
2023-01-13T17:19:46.713Z,7.34
2023-01-13T17:24:49.722Z,7.34
2023-01-13T17:29:52.824Z,7.33
2023-01-13T17:34:55.837Z,7.30
2023-01-13T17:39:59.066Z,7.29
2023-01-13T17:45:02.162Z,7.28
2023-01-13T17:50:06.216Z,7.26
2023-01-13T17:55:09.565Z,7.24
2023-01-13T18:00:13.127Z,7.20
2023-01-13T18:05:16.230Z,7.14
2023-01-13T18:10:19.434Z,7.11
2023-01-13T18:15:22.947Z,7.11
2023-01-13T18:20:44.693Z,7.14
2023-01-13T18:26:20.677Z,7.14
2023-01-13T18:31:23.679Z,7.13
2023-01-13T18:36:26.900Z,7.11
2023-01-13T18:41:49.561Z,7.11
2023-01-13T18:46:52.664Z,7.10
2023-01-13T18:51:56.290Z,7.04
2023-01-13T18:57:01.354Z,6.92
2023-01-13T19:02:09.571Z,6.78
2023-01-13T19:07:16.842Z,6.69
2023-01-13T19:12:26.472Z,6.62
2023-01-13T19:17:34.732Z,6.52
2023-01-13T19:22:37.679Z,6.43
2023-01-13T19:27:40.575Z,6.39
2023-01-13T19:32:43.690Z,6.41
2023-01-13T19:37:47.010Z,6.45
2023-01-13T19:43:08.867Z,6.46
2023-01-13T19:48:16.170Z,6.44
2023-01-13T19:53:19.127Z,6.37
2023-01-13T19:58:26.265Z,6.25
2023-01-13T20:03:36.030Z,6.09
2023-01-13T20:08:39.065Z,5.92
2023-01-13T20:13:42.358Z,5.77
2023-01-13T20:18:50.411Z,5.61
2023-01-13T20:23:53.696Z,5.49
2023-01-13T20:28:56.595Z,5.39
2023-01-13T20:33:59.601Z,5.29
2023-01-13T20:39:04.764Z,5.18
2023-01-13T20:44:11.466Z,5.10
2023-01-13T20:49:15.665Z,5.00
2023-01-13T20:54:19.373Z,4.93
2023-01-13T20:59:23.139Z,4.88
2023-01-13T21:04:26.553Z,4.83
2023-01-13T21:09:29.657Z,4.79
2023-01-13T21:15:01.749Z,4.72
2023-01-13T21:20:07.313Z,4.67
2023-01-13T21:25:12.512Z,4.62
2023-01-13T21:30:17.125Z,4.57
2023-01-13T21:35:20.151Z,4.53
2023-01-13T21:40:23.441Z,4.49
2023-01-13T21:45:45.016Z,4.49
2023-01-13T21:50:48.189Z,4.50
2023-01-13T21:55:52.579Z,4.52
2023-01-13T22:00:55.773Z,4.52
2023-01-13T22:05:58.966Z,4.50
2023-01-13T22:11:03.061Z,4.47
2023-01-13T22:16:06.719Z,4.43
2023-01-13T22:21:09.777Z,4.36
2023-01-13T22:26:12.922Z,4.27
2023-01-13T22:31:18.603Z,4.19
2023-01-13T22:36:24.064Z,4.14
2023-01-13T22:41:27.058Z,4.08
2023-01-13T22:46:30.163Z,4.02
2023-01-13T22:51:33.392Z,3.98
2023-01-13T22:56:36.961Z,3.95
2023-01-13T23:01:42.182Z,3.94
2023-01-13T23:06:45.169Z,3.91
2023-01-13T23:11:48.167Z,3.89
2023-01-13T23:16:51.828Z,3.86
2023-01-13T23:21:54.801Z,3.83
2023-01-13T23:26:57.908Z,3.86
2023-01-13T23:32:00.920Z,3.93
2023-01-13T23:37:04.337Z,4.03
2023-01-13T23:42:07.333Z,4.12
2023-01-13T23:47:11.878Z,4.22
2023-01-13T23:52:17.873Z,4.30
2023-01-13T23:57:20.972Z,4.35
